createdAt,value
2023-05-18T00:01:49.779Z,4.59
2023-05-18T00:04:16.319Z,4.79
2023-05-18T00:06:42.830Z,4.65
2023-05-18T00:09:09.262Z,4.79
2023-05-18T00:11:35.641Z,4.96
2023-05-18T00:14:02.106Z,4.99
2023-05-18T00:16:28.586Z,4.51
2023-05-18T00:18:55.063Z,4.75
2023-05-18T00:21:21.553Z,4.60
2023-05-18T00:23:47.958Z,4.77
2023-05-18T00:26:14.385Z,5.03
2023-05-18T00:28:40.793Z,5.09
2023-05-18T00:31:07.264Z,5.35
2023-05-18T00:33:33.774Z,4.96
2023-05-18T00:36:00.198Z,4.75
2023-05-18T00:38:26.762Z,5.30
2023-05-18T00:40:53.196Z,5.56
2023-05-18T00:43:19.767Z,5.09
2023-05-18T00:45:46.349Z,4.79
2023-05-18T00:48:12.851Z,4.94
2023-05-18T00:50:39.291Z,5.24
2023-05-18T00:53:05.725Z,4.96
2023-05-18T00:55:32.365Z,4.99
2023-05-18T00:57:59.033Z,5.02
2023-05-18T01:00:25.502Z,5.44
2023-05-18T01:02:52.195Z,5.27
2023-05-18T01:05:18.742Z,5.10
2023-05-18T01:07:45.198Z,5.25
2023-05-18T01:10:11.601Z,5.06
2023-05-18T01:12:38.055Z,5.41
2023-05-18T01:15:04.520Z,5.26
2023-05-18T01:17:30.939Z,5.31
2023-05-18T01:19:57.408Z,5.17
2023-05-18T01:22:23.855Z,5.33
2023-05-18T01:24:50.267Z,5.29
2023-05-18T01:27:16.710Z,5.60
2023-05-18T01:29:43.133Z,5.66
2023-05-18T01:32:09.583Z,5.59
2023-05-18T01:34:36.020Z,5.64
2023-05-18T01:37:02.697Z,5.54
2023-05-18T01:39:29.099Z,5.84
2023-05-18T01:41:55.519Z,5.19
2023-05-18T01:44:22.046Z,5.26
2023-05-18T01:46:48.782Z,5.38
2023-05-18T01:49:15.272Z,5.73
2023-05-18T01:51:41.745Z,5.49
2023-05-18T01:54:08.332Z,5.34
2023-05-18T01:56:34.825Z,5.58
2023-05-18T01:59:01.333Z,5.79
2023-05-18T02:01:27.844Z,5.76
2023-05-18T02:03:54.516Z,5.44
2023-05-18T02:06:21.167Z,5.56
2023-05-18T02:08:47.697Z,5.43
2023-05-18T02:11:14.139Z,5.28
2023-05-18T02:13:40.558Z,5.27
2023-05-18T02:16:07.078Z,5.64
2023-05-18T02:18:33.715Z,5.61
2023-05-18T02:21:00.687Z,5.54
2023-05-18T02:23:27.111Z,5.81
2023-05-18T02:25:53.556Z,5.58
2023-05-18T02:28:19.965Z,6.04
2023-05-18T02:30:46.401Z,5.96
2023-05-18T02:33:12.858Z,5.85
2023-05-18T02:35:39.321Z,5.58
2023-05-18T02:38:05.767Z,5.64
2023-05-18T02:40:32.210Z,5.65
2023-05-18T02:42:59.687Z,5.42
2023-05-18T02:45:26.131Z,5.41
2023-05-18T02:47:52.645Z,5.64
2023-05-18T02:50:19.151Z,5.44
2023-05-18T02:52:45.571Z,5.56
2023-05-18T02:55:11.992Z,5.53
2023-05-18T02:57:38.442Z,5.56
2023-05-18T03:00:04.881Z,5.48
2023-05-18T03:02:31.351Z,5.53
2023-05-18T03:04:57.896Z,5.87
2023-05-18T03:07:24.329Z,6.19
2023-05-18T03:09:50.768Z,5.70
2023-05-18T03:12:17.188Z,5.48
2023-05-18T03:14:43.619Z,5.15
2023-05-18T03:17:10.188Z,5.84
2023-05-18T03:19:36.675Z,5.98
2023-05-18T03:22:03.102Z,5.74
2023-05-18T03:24:29.643Z,5.49
2023-05-18T03:26:56.081Z,5.57
2023-05-18T03:29:22.531Z,5.67
2023-05-18T03:31:49.072Z,5.63
2023-05-18T03:34:15.557Z,5.87
2023-05-18T03:36:42.125Z,5.69
2023-05-18T03:39:08.651Z,5.79
2023-05-18T03:41:35.078Z,5.74
2023-05-18T03:44:01.512Z,5.82
2023-05-18T03:46:27.977Z,5.46
2023-05-18T03:48:54.428Z,5.33
2023-05-18T03:51:20.901Z,5.52
2023-05-18T03:53:47.313Z,5.96
2023-05-18T03:56:13.749Z,6.18
2023-05-18T03:58:40.213Z,5.71
2023-05-18T04:01:06.661Z,5.85
2023-05-18T04:03:33.181Z,5.90
2023-05-18T04:05:59.813Z,5.72
2023-05-18T04:08:26.247Z,5.68
2023-05-18T04:10:52.677Z,5.57
2023-05-18T04:13:19.124Z,5.40
2023-05-18T04:15:45.590Z,5.43
2023-05-18T04:18:12.044Z,5.24
2023-05-18T04:20:38.521Z,5.84
2023-05-18T04:23:04.964Z,5.55
2023-05-18T04:25:31.546Z,5.52
2023-05-18T04:27:58.315Z,5.51
2023-05-18T04:30:24.789Z,5.60
2023-05-18T04:32:51.297Z,5.20
2023-05-18T04:35:17.780Z,5.36
2023-05-18T04:37:44.220Z,5.59
2023-05-18T04:40:10.634Z,5.52
2023-05-18T04:42:37.067Z,5.46
2023-05-18T04:45:03.503Z,5.47
2023-05-18T04:47:29.949Z,5.71
2023-05-18T04:49:56.440Z,6.01
2023-05-18T04:52:22.852Z,5.62
2023-05-18T04:54:49.259Z,5.80
2023-05-18T04:57:15.671Z,6.04
2023-05-18T04:59:42.095Z,5.96
2023-05-18T05:02:08.598Z,5.86
2023-05-18T05:04:35.085Z,5.41
2023-05-18T05:07:01.544Z,5.73
2023-05-18T05:09:27.966Z,5.56
2023-05-18T05:11:54.491Z,5.87
2023-05-18T05:14:20.897Z,5.81
2023-05-18T05:16:47.350Z,5.74
2023-05-18T05:19:13.817Z,5.79
2023-05-18T05:21:40.339Z,5.38
2023-05-18T05:24:06.790Z,5.47
2023-05-18T05:26:33.227Z,6.05
2023-05-18T05:28:59.667Z,5.52
2023-05-18T05:31:26.194Z,5.46
2023-05-18T05:33:52.749Z,5.83
2023-05-18T05:36:19.161Z,5.37
2023-05-18T05:38:45.604Z,5.50
2023-05-18T05:41:12.930Z,5.71
2023-05-18T05:43:39.375Z,5.42
2023-05-18T05:46:05.821Z,5.70
2023-05-18T05:48:32.243Z,5.96
2023-05-18T05:50:58.690Z,5.83
2023-05-18T05:53:25.116Z,5.80
2023-05-18T05:55:51.549Z,5.82
2023-05-18T05:58:17.942Z,5.99
2023-05-18T06:00:44.429Z,5.88
2023-05-18T06:03:11.020Z,6.07
2023-05-18T06:05:37.512Z,5.60
2023-05-18T06:08:04.079Z,5.97
2023-05-18T06:10:30.603Z,5.63
2023-05-18T06:12:57.044Z,5.62
2023-05-18T06:15:23.526Z,6.01
2023-05-18T06:17:50.021Z,5.39
2023-05-18T06:20:16.460Z,5.76
2023-05-18T06:22:42.868Z,5.88
2023-05-18T06:25:09.371Z,5.97
2023-05-18T06:27:35.809Z,6.29
2023-05-18T06:30:02.301Z,6.88
2023-05-18T06:32:28.964Z,6.56
2023-05-18T06:34:55.604Z,5.90
2023-05-18T06:37:22.039Z,6.34
2023-05-18T06:39:48.497Z,6.56
2023-05-18T06:42:14.969Z,5.98
2023-05-18T06:44:41.412Z,6.01
2023-05-18T06:47:07.867Z,6.21
2023-05-18T06:49:34.339Z,6.06
2023-05-18T06:52:00.828Z,5.82
2023-05-18T06:54:29.269Z,6.09
2023-05-18T06:56:55.804Z,5.83
2023-05-18T06:59:22.300Z,6.43
2023-05-18T07:01:48.785Z,7.19
2023-05-18T07:04:15.497Z,7.15
2023-05-18T07:06:42.076Z,7.35
2023-05-18T07:09:08.528Z,6.40
2023-05-18T07:11:34.954Z,6.30
2023-05-18T07:14:01.492Z,6.76
2023-05-18T07:16:28.076Z,6.21
2023-05-18T07:18:54.725Z,6.21
2023-05-18T07:21:21.442Z,6.40
2023-05-18T07:23:47.957Z,6.47
2023-05-18T07:26:14.411Z,10.63
2023-05-18T07:28:40.848Z,7.06
2023-05-18T07:31:07.333Z,6.55
2023-05-18T07:33:33.822Z,6.34
2023-05-18T07:36:00.288Z,6.76
2023-05-18T07:38:26.725Z,6.29
2023-05-18T07:40:53.246Z,6.70
2023-05-18T07:43:19.728Z,6.64
2023-05-18T07:45:46.160Z,6.61
2023-05-18T07:48:12.609Z,6.05
2023-05-18T07:50:39.126Z,6.37
2023-05-18T07:53:05.574Z,6.47
2023-05-18T07:55:32.396Z,6.67
2023-05-18T07:57:59.079Z,6.48
2023-05-18T08:00:25.544Z,6.51
2023-05-18T08:02:52.127Z,6.67
2023-05-18T08:05:18.751Z,6.21
2023-05-18T08:07:45.191Z,6.14
2023-05-18T08:10:11.707Z,6.31
2023-05-18T08:12:38.290Z,6.39
2023-05-18T08:15:04.709Z,6.45
2023-05-18T08:17:31.161Z,6.31
2023-05-18T08:19:57.580Z,6.96
2023-05-18T08:22:24.168Z,6.59
2023-05-18T08:24:50.601Z,6.44
2023-05-18T08:27:17.000Z,7.06
2023-05-18T08:29:43.463Z,7.17
2023-05-18T08:32:09.949Z,6.80
2023-05-18T08:34:36.488Z,9.27
2023-05-18T08:37:02.974Z,6.90
2023-05-18T08:39:29.378Z,6.52
2023-05-18T08:41:55.842Z,6.44
2023-05-18T08:44:22.296Z,6.30
2023-05-18T08:46:48.713Z,6.67
2023-05-18T08:49:15.117Z,6.96
2023-05-18T08:51:41.765Z,7.01
2023-05-18T08:54:08.235Z,6.30
2023-05-18T08:56:34.691Z,6.72
2023-05-18T08:59:01.165Z,6.33
2023-05-18T09:01:27.652Z,6.72
2023-05-18T09:03:54.082Z,6.91
2023-05-18T09:06:21.853Z,6.67
2023-05-18T09:08:49.328Z,6.46
2023-05-18T09:11:15.732Z,6.94
2023-05-18T09:13:42.191Z,7.29
2023-05-18T09:16:08.770Z,6.82
2023-05-18T09:18:35.261Z,6.95
2023-05-18T09:21:01.736Z,7.14
2023-05-18T09:23:28.157Z,8.78
2023-05-18T09:25:54.605Z,9.34
2023-05-18T09:28:21.019Z,7.83
2023-05-18T09:30:47.438Z,6.98
2023-05-18T09:33:14.106Z,7.01
2023-05-18T09:35:40.652Z,6.62
2023-05-18T09:38:07.102Z,7.28
2023-05-18T09:40:33.524Z,7.26
2023-05-18T09:42:59.963Z,7.17
2023-05-18T09:45:26.460Z,7.22
2023-05-18T09:47:52.960Z,7.19
2023-05-18T09:50:19.521Z,7.33
2023-05-18T09:52:45.988Z,6.99
2023-05-18T09:55:12.441Z,6.95
2023-05-18T09:57:38.892Z,7.14
2023-05-18T10:00:05.337Z,7.37
2023-05-18T10:02:31.795Z,7.06
2023-05-18T10:04:58.331Z,7.01
2023-05-18T10:07:24.759Z,6.95
2023-05-18T10:09:51.168Z,9.95
2023-05-18T10:12:17.604Z,8.91
2023-05-18T10:14:44.150Z,6.78
2023-05-18T10:17:15.749Z,6.57
2023-05-18T10:19:43.274Z,6.90
2023-05-18T10:22:09.682Z,6.74
2023-05-18T10:24:36.119Z,6.54
2023-05-18T10:27:02.580Z,5.97
2023-05-18T10:29:29.008Z,6.12
2023-05-18T10:31:55.473Z,6.30
2023-05-18T10:34:21.892Z,6.28
2023-05-18T10:36:48.319Z,6.12
2023-05-18T10:39:14.728Z,6.29
2023-05-18T10:41:41.169Z,6.72
2023-05-18T10:44:07.596Z,6.63
2023-05-18T10:46:34.282Z,6.23
2023-05-18T10:49:00.834Z,5.99
2023-05-18T10:51:27.225Z,6.20
2023-05-18T10:53:56.093Z,5.91
2023-05-18T10:56:22.821Z,6.01
2023-05-18T10:58:49.428Z,6.07
2023-05-18T11:01:15.957Z,7.53
2023-05-18T11:03:42.466Z,5.64
2023-05-18T11:06:08.930Z,6.28
2023-05-18T11:08:35.387Z,6.75
2023-05-18T11:11:01.814Z,6.59
2023-05-18T11:13:28.244Z,6.15
2023-05-18T11:15:54.674Z,5.79
2023-05-18T11:18:21.385Z,6.26
2023-05-18T11:20:47.839Z,6.20
2023-05-18T11:23:14.260Z,6.33
2023-05-18T11:25:40.653Z,5.82
2023-05-18T11:28:07.118Z,5.58
2023-05-18T11:30:33.893Z,5.75
2023-05-18T11:33:00.675Z,10.87
2023-05-18T11:35:27.248Z,6.76
2023-05-18T11:37:53.908Z,6.35
2023-05-18T11:40:20.422Z,6.28
2023-05-18T11:42:46.892Z,5.53
2023-05-18T11:45:13.351Z,6.26
2023-05-18T11:47:39.951Z,8.10
2023-05-18T11:50:06.459Z,7.16
2023-05-18T11:52:32.862Z,6.05
2023-05-18T11:54:59.383Z,6.08
2023-05-18T11:57:25.850Z,6.32
2023-05-18T11:59:52.319Z,5.96
2023-05-18T12:02:21.526Z,5.54
2023-05-18T12:04:48.189Z,5.60
2023-05-18T12:07:14.861Z,5.99
2023-05-18T12:09:41.399Z,5.64
2023-05-18T12:12:07.819Z,6.42
2023-05-18T12:14:34.250Z,6.21
2023-05-18T12:17:03.553Z,9.75
2023-05-18T12:19:30.062Z,6.63
2023-05-18T12:21:58.876Z,5.35
2023-05-18T12:24:25.502Z,5.26
2023-05-18T12:26:51.972Z,5.02
2023-05-18T12:29:18.455Z,5.01
2023-05-18T12:31:45.006Z,4.52
2023-05-18T12:34:11.782Z,4.74
2023-05-18T12:36:38.213Z,4.71
2023-05-18T12:39:04.620Z,4.71
2023-05-18T12:41:31.186Z,4.90
2023-05-18T12:43:57.666Z,5.10
2023-05-18T12:46:24.264Z,4.73
2023-05-18T12:48:50.785Z,4.85
2023-05-18T12:51:17.218Z,4.87
2023-05-18T12:53:43.653Z,4.87
2023-05-18T12:56:10.086Z,5.10
2023-05-18T12:58:36.522Z,5.55
2023-05-18T13:01:02.957Z,4.95
2023-05-18T13:03:29.644Z,5.00
2023-05-18T13:05:56.201Z,4.98
2023-05-18T13:08:22.624Z,5.63
2023-05-18T13:10:58.171Z,4.88
2023-05-18T13:13:31.726Z,4.67
2023-05-18T13:15:58.140Z,4.90
2023-05-18T13:18:24.644Z,4.75
2023-05-18T13:20:51.075Z,4.85
2023-05-18T13:23:17.505Z,4.76
2023-05-18T13:25:43.913Z,4.76
2023-05-18T13:28:10.310Z,4.53
2023-05-18T13:30:36.741Z,4.76
2023-05-18T13:33:03.226Z,4.64
2023-05-18T13:35:29.990Z,4.47
2023-05-18T13:37:56.646Z,4.48
2023-05-18T13:40:23.085Z,4.40
2023-05-18T13:42:49.524Z,4.48
2023-05-18T13:45:16.402Z,4.50
2023-05-18T13:47:42.935Z,4.65
2023-05-18T13:50:09.369Z,4.72
2023-05-18T13:52:35.792Z,4.45
2023-05-18T13:55:02.203Z,4.29
2023-05-18T13:57:28.618Z,4.65
2023-05-18T13:59:55.056Z,5.30
2023-05-18T14:02:21.604Z,4.71
2023-05-18T14:04:48.139Z,5.09
2023-05-18T14:07:14.866Z,4.89
2023-05-18T14:09:41.549Z,4.84
2023-05-18T14:12:08.139Z,4.28
2023-05-18T14:14:34.616Z,4.32
2023-05-18T14:17:01.183Z,4.31
2023-05-18T14:19:27.822Z,4.77
2023-05-18T14:21:54.480Z,4.09
2023-05-18T14:24:20.881Z,4.45
2023-05-18T14:26:47.355Z,4.57
2023-05-18T14:29:13.803Z,4.47
2023-05-18T14:31:40.334Z,4.25
2023-05-18T14:34:06.815Z,4.57
2023-05-18T14:36:33.248Z,4.42
2023-05-18T14:38:59.656Z,4.68
2023-05-18T14:41:26.081Z,4.63
2023-05-18T14:43:52.493Z,4.90
2023-05-18T14:46:18.972Z,4.94
2023-05-18T14:48:45.512Z,4.49
2023-05-18T14:51:11.990Z,4.71
2023-05-18T14:53:38.642Z,4.53
2023-05-18T14:56:05.105Z,4.77
2023-05-18T14:58:31.544Z,4.95
2023-05-18T15:00:57.960Z,4.84
2023-05-18T15:03:26.383Z,5.10
2023-05-18T15:05:54.348Z,4.77
2023-05-18T15:08:20.866Z,4.80
2023-05-18T15:10:47.287Z,4.77
2023-05-18T15:13:13.697Z,4.88
2023-05-18T15:15:40.147Z,4.69
2023-05-18T15:18:06.631Z,5.03
2023-05-18T15:20:33.354Z,4.86
2023-05-18T15:23:00.026Z,4.90
2023-05-18T15:25:26.468Z,4.88
2023-05-18T15:27:52.912Z,4.72
2023-05-18T15:30:19.334Z,4.41
2023-05-18T15:32:45.793Z,4.39
2023-05-18T15:35:12.336Z,4.99
2023-05-18T15:37:38.818Z,4.68
2023-05-18T15:40:05.297Z,4.52
2023-05-18T15:42:31.745Z,4.75
2023-05-18T15:44:58.203Z,4.87
2023-05-18T15:47:24.706Z,4.59
2023-05-18T15:49:51.276Z,4.48
2023-05-18T15:52:17.733Z,4.49
2023-05-18T15:54:44.292Z,5.79
2023-05-18T15:57:10.853Z,5.25
2023-05-18T15:59:37.845Z,4.67
2023-05-18T16:02:04.279Z,4.80
2023-05-18T16:04:30.754Z,4.87
2023-05-18T16:06:57.194Z,4.71
2023-05-18T16:09:23.657Z,4.61
2023-05-18T16:11:50.114Z,4.82
2023-05-18T16:14:19.271Z,5.10
2023-05-18T16:16:45.776Z,4.71
2023-05-18T16:19:12.249Z,5.06
2023-05-18T16:21:38.834Z,5.11
2023-05-18T16:24:05.279Z,5.12
2023-05-18T16:26:31.748Z,4.88
2023-05-18T16:28:58.199Z,5.40
2023-05-18T16:31:24.659Z,4.78
2023-05-18T16:33:51.143Z,5.05
2023-05-18T16:36:17.581Z,5.14
2023-05-18T16:38:44.026Z,5.18
2023-05-18T16:41:12.316Z,5.64
2023-05-18T16:43:38.797Z,5.29
2023-05-18T16:46:05.255Z,4.91
2023-05-18T16:48:31.709Z,6.67
2023-05-18T16:50:58.128Z,4.86
2023-05-18T16:53:24.606Z,5.34
2023-05-18T16:55:51.083Z,5.18
2023-05-18T16:58:17.647Z,4.70
2023-05-18T17:00:44.067Z,4.83
2023-05-18T17:03:10.841Z,5.05
2023-05-18T17:05:37.401Z,5.00
2023-05-18T17:08:03.837Z,5.12
2023-05-18T17:10:30.503Z,5.15
2023-05-18T17:12:57.147Z,5.92
2023-05-18T17:15:23.644Z,6.27
2023-05-18T17:17:50.123Z,5.00
2023-05-18T17:20:16.656Z,5.10
2023-05-18T17:22:43.237Z,8.81
2023-05-18T17:25:09.677Z,7.93
2023-05-18T17:27:36.174Z,11.78
2023-05-18T17:30:02.668Z,8.48
2023-05-18T17:32:29.219Z,5.54
2023-05-18T17:34:55.668Z,5.10
2023-05-18T17:37:22.088Z,5.64
2023-05-18T17:39:48.755Z,5.43
2023-05-18T17:42:15.235Z,5.15
2023-05-18T17:44:41.806Z,5.50
2023-05-18T17:47:08.261Z,5.61
2023-05-18T17:49:35.954Z,9.62
2023-05-18T17:52:02.417Z,6.36
2023-05-18T17:54:28.901Z,5.22
2023-05-18T17:56:55.518Z,5.44
2023-05-18T17:59:21.960Z,5.55
2023-05-18T18:01:48.653Z,5.48
2023-05-18T18:04:15.172Z,5.32
2023-05-18T18:06:41.617Z,5.25
2023-05-18T18:09:08.171Z,5.26
2023-05-18T18:11:34.724Z,5.36
2023-05-18T18:14:01.184Z,6.21
2023-05-18T18:16:27.633Z,6.52
2023-05-18T18:18:54.100Z,5.29
2023-05-18T18:21:20.596Z,5.49
2023-05-18T18:23:47.167Z,5.19
2023-05-18T18:26:13.953Z,5.30
2023-05-18T18:28:40.368Z,4.97
2023-05-18T18:31:06.970Z,5.62
2023-05-18T18:33:33.569Z,5.45
2023-05-18T18:36:00.125Z,5.48
2023-05-18T18:38:26.683Z,5.20
2023-05-18T18:40:53.152Z,5.17
2023-05-18T18:43:19.716Z,5.42
2023-05-18T18:45:46.161Z,5.22
2023-05-18T18:48:12.687Z,6.44
2023-05-18T18:50:39.187Z,5.56
2023-05-18T18:53:05.699Z,5.24
2023-05-18T18:55:32.401Z,5.47
2023-05-18T18:57:59.095Z,5.05
2023-05-18T19:00:25.581Z,5.61
2023-05-18T19:02:51.999Z,5.49
2023-05-18T19:05:18.642Z,5.33
2023-05-18T19:07:45.171Z,5.09
2023-05-18T19:10:11.645Z,6.33
2023-05-18T19:12:38.074Z,7.35
2023-05-18T19:15:04.512Z,4.96
2023-05-18T19:17:30.960Z,5.13
2023-05-18T19:19:57.451Z,4.91
2023-05-18T19:22:24.018Z,5.43
2023-05-18T19:24:50.562Z,4.82
2023-05-18T19:27:17.076Z,5.06
2023-05-18T19:29:43.532Z,5.02
2023-05-18T19:32:09.975Z,5.13
2023-05-18T19:34:36.565Z,5.32
2023-05-18T19:37:03.015Z,4.84
2023-05-18T19:39:29.453Z,5.36
2023-05-18T19:41:55.934Z,5.43
2023-05-18T19:44:22.392Z,5.60
2023-05-18T19:46:48.882Z,5.42
2023-05-18T19:49:15.311Z,5.51
2023-05-18T19:51:41.752Z,5.58
2023-05-18T19:54:08.161Z,5.35
2023-05-18T19:56:34.643Z,5.17
2023-05-18T19:59:01.142Z,8.99
2023-05-18T20:01:27.598Z,7.99
2023-05-18T20:03:54.088Z,5.51
2023-05-18T20:06:20.563Z,5.32
2023-05-18T20:08:46.984Z,5.29
2023-05-18T20:11:13.399Z,5.43
2023-05-18T20:13:39.849Z,5.41
2023-05-18T20:16:06.308Z,5.71
2023-05-18T20:18:32.814Z,5.51
2023-05-18T20:20:59.268Z,5.48
2023-05-18T20:23:25.729Z,5.70
2023-05-18T20:25:52.246Z,5.45
2023-05-18T20:28:18.673Z,5.58
2023-05-18T20:30:45.251Z,5.31
2023-05-18T20:33:11.680Z,5.58
2023-05-18T20:35:38.135Z,5.12
2023-05-18T20:38:04.746Z,5.46
2023-05-18T20:40:31.499Z,5.29
2023-05-18T20:42:58.147Z,5.15
2023-05-18T20:45:24.600Z,5.10
2023-05-18T20:47:51.243Z,5.41
2023-05-18T20:50:17.712Z,5.41
2023-05-18T20:52:44.198Z,5.50
2023-05-18T20:55:10.763Z,5.06
2023-05-18T20:57:37.230Z,5.64
2023-05-18T21:00:03.697Z,5.26
2023-05-18T21:02:30.302Z,5.27
2023-05-18T21:04:56.740Z,5.08
2023-05-18T21:07:23.234Z,5.53
2023-05-18T21:09:49.663Z,5.70
2023-05-18T21:12:16.213Z,5.44
2023-05-18T21:14:42.666Z,5.30
2023-05-18T21:17:10.295Z,5.26
2023-05-18T21:19:36.751Z,5.19
2023-05-18T21:22:03.229Z,5.21
2023-05-18T21:24:29.674Z,5.18
2023-05-18T21:26:56.130Z,5.33
2023-05-18T21:29:22.560Z,5.07
2023-05-18T21:31:49.157Z,5.29
2023-05-18T21:34:15.765Z,5.47
2023-05-18T21:36:42.237Z,5.48
2023-05-18T21:39:08.658Z,5.29
2023-05-18T21:41:35.176Z,5.28
2023-05-18T21:44:01.800Z,5.51
2023-05-18T21:46:28.420Z,5.39
2023-05-18T21:48:54.920Z,5.35
2023-05-18T21:51:21.358Z,5.24
2023-05-18T21:53:47.825Z,5.37
2023-05-18T21:56:14.317Z,5.57
2023-05-18T21:58:40.746Z,5.21
2023-05-18T22:01:07.193Z,4.92
2023-05-18T22:03:33.717Z,5.41
2023-05-18T22:06:00.170Z,5.24
2023-05-18T22:08:26.655Z,5.40
2023-05-18T22:10:53.141Z,5.45
2023-05-18T22:13:19.605Z,5.41
2023-05-18T22:15:46.077Z,5.29
2023-05-18T22:18:12.635Z,5.45
2023-05-18T22:20:39.073Z,5.14
2023-05-18T22:23:05.659Z,5.45
2023-05-18T22:25:32.085Z,4.86
2023-05-18T22:27:58.549Z,5.60
2023-05-18T22:30:25.078Z,5.43
2023-05-18T22:32:51.558Z,5.45
2023-05-18T22:35:18.020Z,5.61
2023-05-18T22:37:44.437Z,5.11
2023-05-18T22:40:10.863Z,5.47
2023-05-18T22:42:37.362Z,5.24
2023-05-18T22:45:06.547Z,5.05
2023-05-18T22:47:33.018Z,5.09
2023-05-18T22:49:59.494Z,5.06
2023-05-18T22:52:25.916Z,5.26
2023-05-18T22:54:52.395Z,5.26
2023-05-18T22:57:18.819Z,5.35
2023-05-18T22:59:45.247Z,5.05
2023-05-18T23:02:11.719Z,5.07
2023-05-18T23:04:38.191Z,4.80
2023-05-18T23:07:04.655Z,4.98
2023-05-18T23:09:31.085Z,4.71
2023-05-18T23:11:57.498Z,5.31
2023-05-18T23:14:23.952Z,5.17
2023-05-18T23:16:50.400Z,4.69
2023-05-18T23:19:16.917Z,4.81
2023-05-18T23:21:43.374Z,5.17
2023-05-18T23:24:09.782Z,5.02
2023-05-18T23:26:36.272Z,5.14
2023-05-18T23:29:02.682Z,5.35
2023-05-18T23:31:29.101Z,5.02
2023-05-18T23:33:55.521Z,5.00
2023-05-18T23:36:22.011Z,5.19
2023-05-18T23:38:48.473Z,4.79
2023-05-18T23:41:14.969Z,4.90
2023-05-18T23:43:41.406Z,4.88
2023-05-18T23:46:08.075Z,5.15
2023-05-18T23:48:34.581Z,4.84
2023-05-18T23:51:01.042Z,5.10
2023-05-18T23:53:27.511Z,5.11
2023-05-18T23:55:53.937Z,4.66
2023-05-18T23:58:20.371Z,5.02
